createdAt,value
2022-12-23T00:02:59.335Z,7.56
2022-12-23T00:06:01.280Z,7.53
2022-12-23T00:09:03.605Z,7.52
2022-12-23T00:12:23.881Z,7.49
2022-12-23T00:15:25.830Z,7.49
2022-12-23T00:18:27.324Z,7.48
2022-12-23T00:21:28.937Z,7.47
2022-12-23T00:24:30.461Z,7.46
2022-12-23T00:27:37.323Z,7.46
2022-12-23T00:30:52.753Z,7.44
2022-12-23T00:33:54.406Z,7.42
2022-12-23T00:36:56.058Z,7.40
2022-12-23T00:40:16.562Z,7.39
2022-12-23T00:43:18.117Z,7.36
2022-12-23T00:46:19.731Z,7.37
2022-12-23T00:49:39.953Z,7.35
2022-12-23T00:52:41.523Z,7.36
2022-12-23T00:55:46.382Z,7.35
2022-12-23T00:58:47.891Z,7.34
2022-12-23T01:02:08.654Z,7.32
2022-12-23T01:05:29.726Z,7.33
2022-12-23T01:08:31.305Z,7.34
2022-12-23T01:11:32.914Z,7.33
2022-12-23T01:14:34.452Z,7.36
2022-12-23T01:17:36.322Z,7.37
2022-12-23T01:20:39.288Z,7.38
2022-12-23T01:23:40.820Z,7.41
2022-12-23T01:26:42.382Z,7.44
2022-12-23T01:29:43.911Z,7.48
2022-12-23T01:32:45.446Z,7.47
2022-12-23T01:35:47.716Z,7.48
2022-12-23T01:38:50.063Z,7.54
2022-12-23T01:42:10.265Z,7.56
2022-12-23T01:45:29.393Z,7.60
2022-12-23T01:48:30.997Z,7.63
2022-12-23T01:51:33.020Z,7.65
2022-12-23T01:54:36.328Z,7.65
2022-12-23T01:57:42.170Z,7.70
2022-12-23T02:01:04.758Z,7.74
2022-12-23T02:04:09.676Z,7.75
2022-12-23T02:07:30.282Z,7.76
2022-12-23T02:10:44.743Z,7.72
2022-12-23T02:14:33.332Z,7.79
2022-12-23T02:17:59.097Z,7.81
2022-12-23T02:21:35.771Z,7.81
2022-12-23T02:25:11.466Z,7.82
2022-12-23T02:28:22.172Z,7.84
2022-12-23T02:31:26.666Z,7.87
2022-12-23T02:34:55.756Z,7.90
2022-12-23T02:38:14.896Z,7.92
2022-12-23T02:41:41.285Z,7.96
2022-12-23T02:44:58.400Z,8.02
2022-12-23T02:48:08.429Z,8.06
2022-12-23T02:51:14.456Z,8.08
2022-12-23T02:54:21.753Z,8.11
2022-12-23T02:57:29.333Z,8.15
2022-12-23T03:00:31.081Z,8.11
2022-12-23T03:03:32.715Z,8.20
2022-12-23T03:06:43.235Z,8.23
2022-12-23T03:10:02.577Z,8.24
2022-12-23T03:13:15.047Z,8.30
2022-12-23T03:16:31.689Z,8.32
2022-12-23T03:19:43.507Z,8.38
2022-12-23T03:22:57.976Z,8.43
2022-12-23T03:26:07.303Z,8.47
2022-12-23T03:29:19.756Z,8.51
2022-12-23T03:32:24.585Z,8.53
2022-12-23T03:35:32.200Z,8.56
2022-12-23T03:38:37.780Z,8.60
2022-12-23T03:41:47.313Z,8.62
2022-12-23T03:45:11.152Z,8.66
2022-12-23T03:48:15.291Z,8.66
2022-12-23T03:51:20.232Z,8.72
2022-12-23T03:54:32.799Z,8.76
2022-12-23T03:57:44.620Z,8.78
2022-12-23T04:00:59.795Z,8.79
2022-12-23T04:04:08.201Z,8.82
2022-12-23T04:07:21.306Z,8.84
2022-12-23T04:10:23.956Z,8.87
2022-12-23T04:13:27.381Z,8.88
2022-12-23T04:16:29.716Z,8.88
2022-12-23T04:19:31.342Z,8.89
2022-12-23T04:22:32.937Z,8.91
2022-12-23T04:25:34.485Z,8.90
2022-12-23T04:28:36.158Z,8.90
2022-12-23T04:31:37.774Z,8.91
2022-12-23T04:34:39.423Z,8.92
2022-12-23T04:37:41.198Z,8.90
2022-12-23T04:40:48.219Z,8.92
2022-12-23T04:43:52.966Z,8.94
2022-12-23T04:46:55.018Z,8.95
2022-12-23T04:49:56.715Z,8.96
2022-12-23T04:52:58.747Z,8.99
2022-12-23T04:56:00.522Z,8.98
2022-12-23T04:59:02.371Z,9.04
2022-12-23T05:02:04.109Z,9.05
2022-12-23T05:05:06.032Z,9.09
2022-12-23T05:08:07.530Z,9.10
2022-12-23T05:11:09.108Z,9.12
2022-12-23T05:14:11.649Z,9.12
2022-12-23T05:17:13.192Z,9.06
2022-12-23T05:20:14.725Z,9.14
2022-12-23T05:23:16.267Z,9.14
2022-12-23T05:26:17.956Z,9.15
2022-12-23T05:29:19.460Z,9.16
2022-12-23T05:32:21.526Z,9.19
2022-12-23T05:35:24.937Z,9.20
2022-12-23T05:38:26.830Z,9.21
2022-12-23T05:41:28.483Z,9.24
2022-12-23T05:44:30.147Z,9.25
2022-12-23T05:47:31.789Z,9.27
2022-12-23T05:50:33.615Z,9.29
2022-12-23T05:53:36.726Z,9.33
2022-12-23T05:56:38.255Z,9.34
2022-12-23T05:59:39.806Z,9.34
2022-12-23T06:02:41.761Z,9.34
2022-12-23T06:05:44.040Z,9.33
2022-12-23T06:08:45.571Z,9.34
2022-12-23T06:11:47.140Z,9.35
2022-12-23T06:14:48.653Z,9.37
2022-12-23T06:17:50.145Z,9.36
2022-12-23T06:20:51.730Z,9.34
2022-12-23T06:23:53.910Z,9.38
2022-12-23T06:26:57.411Z,9.39
2022-12-23T06:29:59.279Z,9.40
2022-12-23T06:33:00.800Z,9.38
2022-12-23T06:36:02.362Z,9.38
2022-12-23T06:39:03.935Z,9.42
2022-12-23T06:42:05.539Z,9.40
2022-12-23T06:45:07.719Z,9.42
2022-12-23T06:48:09.232Z,9.40
2022-12-23T06:51:11.543Z,9.42
2022-12-23T06:54:13.155Z,9.41
2022-12-23T06:57:14.829Z,9.42
2022-12-23T07:00:16.867Z,9.40
2022-12-23T07:03:18.520Z,9.40
2022-12-23T07:06:20.087Z,9.42
2022-12-23T07:09:21.594Z,9.40
2022-12-23T07:12:23.167Z,9.36
2022-12-23T07:15:24.756Z,9.37
2022-12-23T07:18:26.324Z,9.38
2022-12-23T07:21:29.814Z,9.38
2022-12-23T07:24:31.600Z,9.34
2022-12-23T07:27:33.188Z,9.36
2022-12-23T07:30:35.566Z,9.39
2022-12-23T07:33:37.133Z,9.37
2022-12-23T07:36:38.763Z,9.39
2022-12-23T07:39:40.353Z,9.38
2022-12-23T07:42:45.724Z,9.38
2022-12-23T07:45:51.395Z,9.38
2022-12-23T07:48:57.245Z,9.36
2022-12-23T07:51:58.801Z,9.36
2022-12-23T07:55:00.323Z,9.37
2022-12-23T07:58:02.551Z,9.36
2022-12-23T08:01:07.898Z,9.36
2022-12-23T08:04:09.676Z,9.32
2022-12-23T08:07:11.210Z,9.34
2022-12-23T08:10:13.075Z,9.34
2022-12-23T08:13:14.585Z,9.34
2022-12-23T08:16:16.204Z,9.38
2022-12-23T08:19:17.754Z,9.39
2022-12-23T08:22:19.274Z,9.39
2022-12-23T08:25:20.825Z,9.43
2022-12-23T08:28:22.359Z,9.44
2022-12-23T08:31:27.769Z,9.46
2022-12-23T08:34:29.385Z,9.49
2022-12-23T08:37:30.989Z,9.50
2022-12-23T08:40:32.559Z,9.54
2022-12-23T08:43:36.151Z,9.58
2022-12-23T08:46:38.370Z,9.58
2022-12-23T08:49:39.974Z,9.62
2022-12-23T08:52:41.541Z,9.65
2022-12-23T08:55:45.530Z,9.67
2022-12-23T08:58:49.586Z,9.69
2022-12-23T09:01:51.239Z,9.75
2022-12-23T09:04:52.876Z,9.78
2022-12-23T09:07:54.486Z,9.80
2022-12-23T09:10:56.119Z,9.86
2022-12-23T09:13:59.197Z,9.93
2022-12-23T09:17:00.747Z,9.95
2022-12-23T09:20:02.309Z,9.96
2022-12-23T09:23:05.618Z,10.01
2022-12-23T09:26:09.280Z,10.06
2022-12-23T09:29:10.819Z,10.10
2022-12-23T09:32:12.523Z,10.15
2022-12-23T09:35:14.094Z,10.20
2022-12-23T09:38:15.648Z,10.23
2022-12-23T09:41:57.106Z,10.27
2022-12-23T09:45:13.610Z,10.29
2022-12-23T09:48:21.039Z,10.30
2022-12-23T09:51:23.651Z,10.31
2022-12-23T09:54:29.390Z,10.32
2022-12-23T09:57:38.933Z,10.33
2022-12-23T10:00:48.988Z,10.34
2022-12-23T10:04:24.683Z,10.33
2022-12-23T10:07:44.035Z,10.35
2022-12-23T10:10:51.069Z,10.36
2022-12-23T10:13:56.751Z,10.36
2022-12-23T10:17:05.408Z,10.36
2022-12-23T10:20:18.178Z,10.37
2022-12-23T10:23:33.074Z,10.38
2022-12-23T10:26:53.331Z,10.38
2022-12-23T10:29:55.815Z,10.39
2022-12-23T10:33:12.342Z,10.41
2022-12-23T10:36:51.372Z,10.41
2022-12-23T10:40:08.767Z,10.44
2022-12-23T10:43:28.337Z,10.44
2022-12-23T10:46:53.644Z,10.45
2022-12-23T10:50:23.328Z,10.44
2022-12-23T10:53:50.179Z,10.44
2022-12-23T10:56:52.858Z,10.44
2022-12-23T10:59:54.457Z,10.41
2022-12-23T11:02:56.089Z,10.40
2022-12-23T11:05:59.417Z,10.41
2022-12-23T11:09:03.328Z,10.40
2022-12-23T11:12:08.059Z,10.39
2022-12-23T11:15:34.016Z,10.40
2022-12-23T11:18:41.787Z,10.40
2022-12-23T11:21:55.359Z,10.38
2022-12-23T11:25:18.199Z,10.36
2022-12-23T11:28:22.142Z,10.36
2022-12-23T11:31:32.549Z,10.37
2022-12-23T11:38:25.308Z,10.39
2022-12-23T11:41:33.667Z,10.41
2022-12-23T11:44:40.519Z,10.41
2022-12-23T11:47:43.193Z,10.42
2022-12-23T11:50:44.713Z,10.44
2022-12-23T11:53:46.230Z,10.48
2022-12-23T11:56:52.001Z,10.48
2022-12-23T12:00:01.572Z,10.47
2022-12-23T12:03:05.321Z,10.51
2022-12-23T12:06:07.849Z,10.52
2022-12-23T12:09:13.449Z,10.54
2022-12-23T12:12:21.058Z,10.51
2022-12-23T12:15:35.653Z,10.55
2022-12-23T12:18:39.935Z,10.57
2022-12-23T12:21:41.492Z,10.57
2022-12-23T12:24:52.554Z,10.59
2022-12-23T12:28:02.915Z,10.57
2022-12-23T12:31:23.606Z,10.62
2022-12-23T12:34:31.059Z,10.63
2022-12-23T12:37:54.550Z,10.65
2022-12-23T12:41:33.334Z,10.64
2022-12-23T12:44:47.481Z,10.63
2022-12-23T12:48:13.037Z,10.62
2022-12-23T12:51:43.624Z,10.62
2022-12-23T12:54:54.763Z,10.61
2022-12-23T12:57:56.486Z,10.62
2022-12-23T13:01:26.605Z,10.59
2022-12-23T13:04:58.905Z,10.56
2022-12-23T13:08:20.885Z,10.56
2022-12-23T13:11:57.992Z,10.55
2022-12-23T13:15:11.724Z,10.53
2022-12-23T13:18:34.412Z,10.53
2022-12-23T13:21:48.330Z,10.52
2022-12-23T13:25:05.213Z,10.49
2022-12-23T13:28:30.261Z,10.48
2022-12-23T13:31:54.105Z,10.46
2022-12-23T13:35:05.819Z,10.43
2022-12-23T13:38:58.710Z,10.42
2022-12-23T13:42:06.031Z,10.40
2022-12-23T13:45:15.077Z,10.38
2022-12-23T13:48:28.986Z,10.37
2022-12-23T13:52:12.056Z,10.37
2022-12-23T13:55:44.527Z,10.33
2022-12-23T13:58:50.644Z,10.34
2022-12-23T14:01:52.666Z,10.32
2022-12-23T14:04:59.518Z,10.33
2022-12-23T14:08:08.025Z,10.31
2022-12-23T14:11:21.192Z,10.28
2022-12-23T14:14:25.092Z,10.30
2022-12-23T14:17:44.634Z,10.29
2022-12-23T14:21:06.027Z,10.28
2022-12-23T14:24:35.671Z,10.26
2022-12-23T14:27:44.312Z,10.23
2022-12-23T14:30:46.139Z,10.25
2022-12-23T14:33:48.777Z,10.15
2022-12-23T14:37:21.818Z,10.20
2022-12-23T14:40:38.672Z,10.20
2022-12-23T14:43:46.048Z,10.18
2022-12-23T14:46:47.561Z,10.15
2022-12-23T14:49:49.862Z,10.18
2022-12-23T14:53:00.646Z,10.15
2022-12-23T14:56:23.392Z,10.16
2022-12-23T14:59:48.121Z,10.14
2022-12-23T15:02:55.341Z,10.12
2022-12-23T15:05:58.709Z,10.11
2022-12-23T15:09:02.336Z,10.03
2022-12-23T15:12:15.112Z,10.07
2022-12-23T15:15:19.607Z,10.06
2022-12-23T15:18:21.443Z,10.06
2022-12-23T15:21:32.719Z,10.08
2022-12-23T15:24:34.820Z,10.07
2022-12-23T15:27:37.087Z,10.11
2022-12-23T15:30:51.588Z,10.10
2022-12-23T15:34:04.852Z,10.12
2022-12-23T15:37:12.752Z,10.14
2022-12-23T15:40:24.142Z,10.17
2022-12-23T15:43:26.066Z,10.18
2022-12-23T15:46:30.467Z,10.18
2022-12-23T15:49:32.324Z,10.17
2022-12-23T15:52:33.951Z,10.22
2022-12-23T15:55:39.364Z,10.24
2022-12-23T15:58:42.416Z,10.25
2022-12-23T16:01:44.181Z,10.26
2022-12-23T16:04:54.671Z,10.28
2022-12-23T16:08:11.123Z,10.30
2022-12-23T16:11:18.646Z,10.30
2022-12-23T16:14:35.580Z,10.32
2022-12-23T16:17:37.267Z,10.33
2022-12-23T16:20:45.377Z,10.35
2022-12-23T16:23:52.966Z,10.36
2022-12-23T16:26:56.306Z,10.38
2022-12-23T16:30:02.711Z,10.36
2022-12-23T16:33:24.110Z,10.41
2022-12-23T16:36:25.873Z,10.41
2022-12-23T16:39:27.450Z,10.43
2022-12-23T16:42:28.969Z,10.43
2022-12-23T16:45:35.047Z,10.48
2022-12-23T16:48:40.086Z,10.46
2022-12-23T16:51:42.133Z,10.47
2022-12-23T16:54:43.660Z,10.51
2022-12-23T16:57:45.886Z,10.53
2022-12-23T17:00:48.133Z,10.54
2022-12-23T17:03:50.332Z,10.55
2022-12-23T17:06:51.863Z,10.57
2022-12-23T17:09:54.275Z,10.56
2022-12-23T17:12:55.835Z,10.58
2022-12-23T17:15:57.523Z,10.59
2022-12-23T17:18:59.141Z,10.58
2022-12-23T17:22:03.031Z,10.56
2022-12-23T17:25:04.865Z,10.58
2022-12-23T17:28:10.798Z,10.59
2022-12-23T17:31:15.482Z,10.64
2022-12-23T17:34:24.413Z,10.61
2022-12-23T17:37:25.988Z,10.64
2022-12-23T17:40:27.632Z,10.67
2022-12-23T17:43:29.393Z,10.68
2022-12-23T17:46:31.308Z,10.67
2022-12-23T17:49:32.847Z,10.71
2022-12-23T17:52:34.366Z,10.72
2022-12-23T17:55:35.921Z,10.73
2022-12-23T17:58:37.461Z,10.73
2022-12-23T18:01:39.065Z,10.75
2022-12-23T18:04:40.647Z,10.75
2022-12-23T18:07:42.163Z,10.76
2022-12-23T18:10:44.532Z,10.74
2022-12-23T18:13:47.733Z,10.73
2022-12-23T18:16:49.389Z,10.75
2022-12-23T18:19:51.141Z,10.76
2022-12-23T18:22:54.605Z,10.76
2022-12-23T18:25:57.320Z,10.79
2022-12-23T18:28:58.808Z,10.81
2022-12-23T18:32:00.773Z,10.81
2022-12-23T18:35:02.403Z,10.84
2022-12-23T18:38:04.144Z,10.83
2022-12-23T18:41:05.682Z,10.81
2022-12-23T18:44:15.430Z,10.83
2022-12-23T18:47:17.015Z,10.80
2022-12-23T18:50:18.641Z,10.80
2022-12-23T18:53:25.171Z,10.81
2022-12-23T18:56:27.031Z,10.83
2022-12-23T18:59:30.307Z,10.82
2022-12-23T19:02:32.022Z,10.83
2022-12-23T19:05:33.863Z,10.86
2022-12-23T19:08:37.189Z,10.86
2022-12-23T19:11:38.810Z,10.91
2022-12-23T19:14:40.353Z,10.91
2022-12-23T19:17:42.064Z,10.94
2022-12-23T19:20:45.309Z,10.94
2022-12-23T19:23:46.872Z,10.94
2022-12-23T19:26:48.484Z,10.96
2022-12-23T19:29:51.079Z,10.94
2022-12-23T19:32:53.931Z,10.94
2022-12-23T19:35:55.496Z,10.96
2022-12-23T19:38:57.543Z,10.96
2022-12-23T19:41:59.094Z,11.00
2022-12-23T19:45:00.985Z,11.01
2022-12-23T19:48:02.563Z,11.01
2022-12-23T19:51:12.783Z,11.01
2022-12-23T19:54:14.560Z,11.05
2022-12-23T19:57:16.118Z,11.06
2022-12-23T20:00:17.791Z,11.06
2022-12-23T20:03:19.457Z,11.06
2022-12-23T20:06:24.578Z,11.09
2022-12-23T20:09:26.126Z,11.11
2022-12-23T20:12:28.077Z,11.10
2022-12-23T20:15:29.708Z,11.12
2022-12-23T20:18:31.559Z,11.12
2022-12-23T20:21:34.190Z,11.13
2022-12-23T20:24:35.948Z,11.16
2022-12-23T20:27:38.823Z,11.21
2022-12-23T20:30:42.313Z,11.18
2022-12-23T20:33:43.899Z,11.16
2022-12-23T20:36:45.721Z,11.14
2022-12-23T20:39:47.315Z,11.13
2022-12-23T20:42:48.867Z,11.11
2022-12-23T20:45:52.010Z,11.10
2022-12-23T20:48:53.916Z,11.10
2022-12-23T20:51:55.429Z,11.12
2022-12-23T20:54:57.123Z,11.09
2022-12-23T20:58:18.619Z,11.01
2022-12-23T21:01:21.874Z,10.99
2022-12-23T21:04:23.516Z,10.89
2022-12-23T21:07:26.279Z,10.85
2022-12-23T21:10:27.854Z,10.79
2022-12-23T21:13:29.529Z,10.73
2022-12-23T21:16:31.950Z,10.67
2022-12-23T21:19:34.784Z,10.63
2022-12-23T21:22:36.312Z,10.59
2022-12-23T21:25:37.810Z,10.54
2022-12-23T21:28:40.868Z,10.49
2022-12-23T21:31:42.537Z,10.47
2022-12-23T21:34:44.048Z,10.39
2022-12-23T21:37:45.588Z,10.36
2022-12-23T21:40:47.795Z,10.34
2022-12-23T21:43:49.865Z,10.30
2022-12-23T21:46:51.507Z,10.29
2022-12-23T21:49:53.247Z,10.22
2022-12-23T21:52:54.893Z,10.25
2022-12-23T21:56:10.444Z,10.23
2022-12-23T21:59:13.907Z,10.24
2022-12-23T22:02:16.584Z,10.23
2022-12-23T22:05:18.184Z,10.25
2022-12-23T22:08:19.739Z,10.22
2022-12-23T22:11:24.621Z,10.30
2022-12-23T22:14:26.160Z,10.32
2022-12-23T22:17:27.696Z,10.35
2022-12-23T22:20:29.191Z,10.38
2022-12-23T22:23:30.719Z,10.40
2022-12-23T22:26:33.953Z,10.47
2022-12-23T22:29:35.461Z,10.49
2022-12-23T22:32:42.290Z,10.49
2022-12-23T22:35:53.955Z,10.55
2022-12-23T22:38:57.646Z,10.54
2022-12-23T22:41:59.203Z,10.58
2022-12-23T22:45:00.967Z,10.60
2022-12-23T22:48:02.620Z,10.60
2022-12-23T22:51:09.437Z,10.62
2022-12-23T22:54:11.122Z,10.59
2022-12-23T22:57:12.667Z,10.64
2022-12-23T23:00:14.634Z,10.66
2022-12-23T23:03:16.299Z,10.66
2022-12-23T23:06:18.779Z,10.63
2022-12-23T23:09:22.008Z,10.66
2022-12-23T23:12:23.551Z,10.66
2022-12-23T23:15:25.076Z,10.65
2022-12-23T23:18:27.677Z,10.67
2022-12-23T23:21:29.299Z,10.62
2022-12-23T23:24:31.537Z,10.67
2022-12-23T23:27:33.424Z,10.66
2022-12-23T23:30:35.260Z,10.66
2022-12-23T23:33:36.885Z,10.66
2022-12-23T23:36:38.590Z,10.67
2022-12-23T23:39:40.211Z,10.65
2022-12-23T23:42:41.783Z,10.58
2022-12-23T23:45:43.452Z,10.61
2022-12-23T23:48:45.121Z,10.59
2022-12-23T23:51:46.781Z,10.57
2022-12-23T23:54:48.260Z,10.55
2022-12-23T23:57:49.767Z,10.51
